Time;durP1;ratioP1;P1;durP2;ratioP2;P2;SDS_P1;SDS_P2;PMS_P1;PMS_P2;Temp;Humidity;BMP_temperature;BMP_pressure;BME280_temperature;BME280_humidity;BME280_pressure;Samples;Min_cycle;Max_cycle;Signal;HPM_P1;HPM_P2
2023/03/05 00:00:13;;;;;;;13.30;6.35;;;4.20;99.90;;;;;;5093205;28;20837;-59
2023/03/05 00:02:40;;;;;;;11.63;6.57;;;4.30;99.90;;;;;;5093604;28;20430;-58
2023/03/05 00:05:09;;;;;;;13.07;5.32;;;4.30;99.90;;;;;;5094145;28;20414;-56
2023/03/05 00:07:36;;;;;;;11.50;5.45;;;4.30;99.90;;;;;;5094443;28;20433;-57
2023/03/05 00:10:05;;;;;;;11.90;5.40;;;4.30;99.90;;;;;;5094517;28;20437;-58
2023/03/05 00:12:32;;;;;;;10.65;5.13;;;4.30;99.90;;;;;;5093011;28;20430;-56
2023/03/05 00:15:00;;;;;;;10.97;5.60;;;4.30;99.90;;;;;;5092965;28;20506;-56
2023/03/05 00:17:27;;;;;;;10.43;5.82;;;4.30;99.90;;;;;;5093178;28;20421;-56
2023/03/05 00:19:55;;;;;;;10.70;4.95;;;4.30;99.90;;;;;;5091901;28;20410;-57
2023/03/05 00:22:24;;;;;;;11.00;5.30;;;4.30;99.90;;;;;;5094204;28;20469;-58
2023/03/05 00:24:51;;;;;;;10.70;4.60;;;4.40;99.90;;;;;;5093421;28;20736;-59
2023/03/05 00:27:18;;;;;;;11.57;5.45;;;4.30;99.90;;;;;;5093599;28;20779;-56
2023/03/05 00:29:45;;;;;;;10.27;4.90;;;4.30;99.90;;;;;;5093811;28;20429;-55
2023/03/05 00:32:12;;;;;;;10.68;4.88;;;4.30;99.90;;;;;;5094005;28;20425;-58
2023/03/05 00:34:39;;;;;;;9.35;5.07;;;4.30;99.90;;;;;;5093475;28;20441;-57
2023/03/05 00:37:06;;;;;;;10.38;4.50;;;4.20;99.90;;;;;;5094107;28;20829;-55
2023/03/05 00:39:35;;;;;;;12.18;4.45;;;4.20;99.90;;;;;;5093112;28;20471;-56
2023/03/05 00:42:02;;;;;;;9.10;4.88;;;4.20;99.90;;;;;;5094845;28;20426;-59
2023/03/05 00:44:29;;;;;;;10.45;4.53;;;4.20;99.90;;;;;;5093761;28;20414;-57
2023/03/05 00:46:56;;;;;;;10.43;5.53;;;4.20;99.90;;;;;;5094484;28;20440;-56
2023/03/05 00:49:23;;;;;;;12.25;6.07;;;4.20;99.90;;;;;;5094650;28;20819;-57
2023/03/05 00:51:50;;;;;;;10.38;4.63;;;4.20;99.90;;;;;;5093494;28;20426;-57
2023/03/05 00:54:17;;;;;;;9.48;4.50;;;4.20;99.90;;;;;;5093187;28;20446;-56
2023/03/05 00:56:47;;;;;;;8.13;4.37;;;4.20;99.90;;;;;;5093713;28;20443;-55
2023/03/05 00:59:14;;;;;;;11.98;5.20;;;4.30;99.90;;;;;;5094639;28;20434;-57
2023/03/05 01:01:42;;;;;;;11.38;5.03;;;4.20;99.90;;;;;;5097832;28;20425;-55
2023/03/05 01:04:09;;;;;;;10.27;4.93;;;4.20;99.90;;;;;;5097218;28;20487;-56
2023/03/05 01:06:38;;;;;;;9.98;4.07;;;4.30;99.90;;;;;;5096103;28;20430;-57
2023/03/05 01:09:05;;;;;;;6.03;3.33;;;4.30;99.90;;;;;;5096018;28;20500;-56
2023/03/05 01:11:32;;;;;;;8.75;3.75;;;4.40;99.90;;;;;;5097767;28;20736;-56
2023/03/05 01:14:00;;;;;;;10.30;5.13;;;4.40;99.90;;;;;;5097338;28;20833;-57
2023/03/05 01:16:27;;;;;;;9.32;3.78;;;4.50;99.90;;;;;;5093820;28;20528;-56
2023/03/05 01:18:54;;;;;;;6.35;3.15;;;4.60;99.90;;;;;;5097851;28;20422;-57
2023/03/05 01:21:21;;;;;;;9.82;3.72;;;4.60;99.90;;;;;;5097933;28;21026;-57
2023/03/05 01:23:48;;;;;;;10.32;4.00;;;4.60;99.90;;;;;;5097569;28;20775;-56
2023/03/05 01:26:15;;;;;;;9.85;4.40;;;4.50;99.90;;;;;;5096984;28;20433;-53
2023/03/05 01:28:42;;;;;;;8.68;3.65;;;4.50;99.90;;;;;;5098129;28;20429;-58
2023/03/05 01:31:11;;;;;;;11.67;4.57;;;4.50;99.90;;;;;;5097720;28;20849;-56
2023/03/05 01:33:39;;;;;;;9.15;4.30;;;4.50;99.90;;;;;;5087101;28;20427;-56
2023/03/05 01:36:10;;;;;;;10.48;5.22;;;4.40;99.90;;;;;;5095855;28;20422;-57
2023/03/05 01:38:37;;;;;;;9.52;5.22;;;4.30;99.90;;;;;;5097807;28;20729;-56
2023/03/05 01:41:04;;;;;;;10.73;4.25;;;4.30;99.90;;;;;;5097088;28;20433;-57
2023/03/05 01:43:31;;;;;;;8.63;3.87;;;4.20;99.90;;;;;;5081735;28;20435;-56
2023/03/05 01:46:29;;;;;;;9.18;4.15;;;4.30;99.90;;;;;;5074870;28;20706;-54
2023/03/05 01:49:03;;;;;;;10.70;4.90;;;4.30;99.90;;;;;;5042866;28;20530;-57
2023/03/05 01:51:33;;;;;;;9.52;4.40;;;4.20;99.90;;;;;;5082500;28;20430;-57
2023/03/05 01:54:01;;;;;;;9.47;4.20;;;4.30;99.90;;;;;;5097554;28;20907;-56
2023/03/05 01:56:29;;;;;;;10.68;4.15;;;4.20;99.90;;;;;;5095710;28;20432;-55
2023/03/05 01:59:02;;;;;;;9.40;4.03;;;4.20;99.90;;;;;;5095915;28;20430;-54
2023/03/05 02:01:35;;;;;;;8.23;3.80;;;4.20;99.90;;;;;;5096793;28;20546;-54
2023/03/05 02:04:03;;;;;;;9.70;4.32;;;4.20;99.90;;;;;;5095619;28;20425;-57
2023/03/05 02:06:30;;;;;;;10.18;3.97;;;4.20;99.90;;;;;;5097087;28;20437;-57
2023/03/05 02:08:57;;;;;;;11.68;5.25;;;4.30;99.90;;;;;;5093320;28;20418;-56
2023/03/05 02:11:24;;;;;;;8.93;3.53;;;4.20;99.90;;;;;;5093585;28;20438;-56
2023/03/05 02:13:51;;;;;;;6.20;3.20;;;4.20;99.90;;;;;;5093348;28;20425;-57
2023/03/05 02:16:18;;;;;;;8.38;3.97;;;4.30;99.90;;;;;;5093172;28;20426;-57
2023/03/05 02:18:47;;;;;;;9.00;3.90;;;4.30;99.90;;;;;;5092986;28;20410;-54
2023/03/05 02:21:28;;;;;;;9.32;2.45;;;4.30;99.90;;;;;;5093970;28;20429;-54
2023/03/05 02:23:55;;;;;;;7.18;2.42;;;4.30;99.90;;;;;;5094816;28;20499;-56
2023/03/05 02:26:22;;;;;;;8.15;2.55;;;4.30;99.90;;;;;;5095791;28;20440;-58
2023/03/05 02:28:53;;;;;;;6.85;2.47;;;4.30;99.90;;;;;;5095784;28;20414;-55
2023/03/05 02:31:23;;;;;;;6.65;2.92;;;4.30;99.90;;;;;;5095372;28;20731;-53
2023/03/05 02:33:52;;;;;;;7.50;2.78;;;4.30;99.90;;;;;;5095837;28;20410;-58
2023/03/05 02:36:21;;;;;;;6.32;2.72;;;4.30;99.90;;;;;;5095948;28;20460;-54
2023/03/05 02:38:49;;;;;;;6.57;2.60;;;4.30;99.90;;;;;;5096326;28;20433;-57
2023/03/05 02:41:16;;;;;;;6.55;2.80;;;4.30;99.90;;;;;;5095281;28;20426;-55
2023/03/05 02:43:43;;;;;;;7.55;2.60;;;4.30;99.90;;;;;;5096638;28;20852;-58
2023/03/05 02:46:10;;;;;;;7.40;2.55;;;4.30;99.90;;;;;;5096319;28;20433;-58
2023/03/05 02:48:37;;;;;;;6.53;2.22;;;4.30;99.90;;;;;;5096496;28;20698;-56
2023/03/05 02:51:06;;;;;;;7.27;2.53;;;4.30;99.90;;;;;;5096622;28;20496;-50
2023/03/05 02:53:35;;;;;;;6.05;2.22;;;4.40;99.90;;;;;;5095892;28;20425;-56
2023/03/05 02:56:03;;;;;;;8.77;3.33;;;4.30;99.90;;;;;;5095320;28;20436;-56
2023/03/05 02:58:30;;;;;;;5.63;2.40;;;4.30;99.90;;;;;;5096077;28;20726;-54
2023/03/05 03:00:57;;;;;;;6.95;3.00;;;4.50;99.90;;;;;;5095449;28;20448;-57
2023/03/05 03:03:24;;;;;;;7.40;2.37;;;4.60;99.90;;;;;;5096175;28;20421;-56
2023/03/05 03:05:51;;;;;;;5.37;2.23;;;4.60;99.90;;;;;;5095554;28;20437;-57
2023/03/05 03:08:18;;;;;;;6.35;2.28;;;4.80;99.90;;;;;;5095775;28;20487;-56
2023/03/05 03:10:46;;;;;;;8.25;2.13;;;4.90;99.90;;;;;;5095737;28;20441;-57
2023/03/05 03:13:13;;;;;;;7.38;1.77;;;4.90;99.90;;;;;;5096057;28;20433;-55
2023/03/05 03:15:40;;;;;;;5.80;2.90;;;4.90;99.90;;;;;;5095131;28;20868;-57
2023/03/05 03:18:07;;;;;;;5.90;2.28;;;4.90;99.90;;;;;;5095027;28;20418;-56
2023/03/05 03:20:38;;;;;;;4.93;1.93;;;4.90;99.90;;;;;;5093857;28;20465;-56
2023/03/05 03:23:06;;;;;;;7.85;2.20;;;5.00;99.90;;;;;;5093248;28;20449;-57
2023/03/05 03:25:33;;;;;;;4.43;1.88;;;5.00;99.90;;;;;;5093888;28;20425;-59
2023/03/05 03:28:02;;;;;;;6.68;1.80;;;5.00;99.90;;;;;;5094346;28;20421;-56
2023/03/05 03:30:29;;;;;;;5.75;2.30;;;5.20;99.90;;;;;;5095523;28;20430;-55
2023/03/05 03:32:56;;;;;;;5.30;2.30;;;5.20;99.90;;;;;;5095050;28;20702;-56
2023/03/05 03:35:23;;;;;;;7.38;2.40;;;5.20;99.90;;;;;;5094466;28;20409;-58
2023/03/05 03:37:50;;;;;;;6.57;2.20;;;5.00;99.90;;;;;;5093825;28;20422;-55
2023/03/05 03:40:17;;;;;;;10.00;2.35;;;5.00;99.90;;;;;;5093795;28;20829;-58
2023/03/05 03:42:44;;;;;;;6.53;2.25;;;4.80;99.90;;;;;;5093906;28;20588;-58
2023/03/05 03:45:13;;;;;;;5.72;1.95;;;4.80;99.90;;;;;;5093632;28;20425;-56
2023/03/05 03:47:40;;;;;;;4.30;1.67;;;4.70;99.90;;;;;;5093363;28;20444;-57
2023/03/05 03:50:08;;;;;;;6.07;2.50;;;4.60;99.90;;;;;;5093076;28;20524;-55
2023/03/05 03:52:36;;;;;;;7.30;2.22;;;4.80;99.90;;;;;;5095391;28;20425;-54
2023/03/05 03:55:03;;;;;;;6.93;2.45;;;4.90;99.90;;;;;;5095246;28;20809;-57
2023/03/05 03:57:32;;;;;;;4.93;2.45;;;4.80;99.90;;;;;;5095492;28;20737;-55
2023/03/05 03:59:59;;;;;;;5.50;2.20;;;4.80;99.90;;;;;;5095298;28;20418;-55
2023/03/05 04:02:28;;;;;;;8.38;2.72;;;4.60;99.90;;;;;;5095581;28;20883;-56
2023/03/05 04:04:55;;;;;;;7.22;3.08;;;4.50;99.90;;;;;;5093741;28;20425;-57
2023/03/05 04:07:22;;;;;;;6.20;2.60;;;4.40;99.90;;;;;;5094606;28;20426;-56
2023/03/05 04:09:49;;;;;;;7.23;2.60;;;4.30;99.90;;;;;;5094504;28;20421;-57
2023/03/05 04:12:17;;;;;;;7.45;2.70;;;4.40;99.90;;;;;;5095653;28;20425;-54
2023/03/05 04:14:45;;;;;;;8.52;2.80;;;4.30;99.90;;;;;;5095017;28;20453;-58
2023/03/05 04:17:12;;;;;;;5.95;2.10;;;4.50;99.90;;;;;;5094756;28;20428;-57
2023/03/05 04:19:41;;;;;;;7.85;2.40;;;4.70;99.90;;;;;;5093681;28;20780;-56
2023/03/05 04:22:11;;;;;;;5.97;1.75;;;4.70;99.90;;;;;;5094297;28;20410;-57
2023/03/05 04:24:38;;;;;;;7.07;2.28;;;4.60;99.90;;;;;;5094493;28;20504;-57
2023/03/05 04:27:05;;;;;;;5.38;2.42;;;4.70;99.90;;;;;;5093901;28;20896;-54
2023/03/05 04:29:33;;;;;;;5.57;2.53;;;4.80;99.90;;;;;;5094375;28;20849;-54
2023/03/05 04:32:00;;;;;;;8.60;2.60;;;4.90;99.90;;;;;;5095003;28;20444;-55
2023/03/05 04:34:27;;;;;;;5.25;2.22;;;4.80;99.90;;;;;;5095265;28;20509;-56
2023/03/05 04:36:55;;;;;;;5.63;2.33;;;4.60;99.90;;;;;;5098307;28;20767;-55
2023/03/05 04:39:22;;;;;;;7.53;2.88;;;4.60;99.90;;;;;;5097349;28;20421;-56
2023/03/05 04:41:49;;;;;;;5.97;2.28;;;4.70;99.90;;;;;;5096486;28;20561;-56
2023/03/05 04:44:18;;;;;;;5.93;1.98;;;4.80;99.90;;;;;;5097384;28;20418;-57
2023/03/05 04:46:45;;;;;;;7.93;2.72;;;4.90;99.90;;;;;;5097360;28;20432;-58
2023/03/05 04:49:12;;;;;;;8.18;2.50;;;4.70;99.90;;;;;;5097500;28;20505;-54
2023/03/05 04:51:39;;;;;;;5.57;2.40;;;4.60;99.90;;;;;;5097062;28;20437;-58
2023/03/05 04:54:08;;;;;;;6.95;2.75;;;4.60;99.90;;;;;;5098897;28;20424;-57
2023/03/05 04:56:35;;;;;;;6.30;2.83;;;4.70;99.90;;;;;;5098726;28;20447;-58
2023/03/05 04:59:02;;;;;;;4.97;2.20;;;4.60;99.90;;;;;;5098408;28;20848;-57
2023/03/05 05:01:29;;;;;;;8.57;2.90;;;4.60;99.90;;;;;;5098521;28;20421;-55
2023/03/05 05:03:56;;;;;;;6.03;2.38;;;4.50;99.90;;;;;;5098002;28;20425;-56
2023/03/05 05:06:23;;;;;;;5.00;2.40;;;4.70;99.90;;;;;;5098131;28;20426;-55
2023/03/05 05:08:50;;;;;;;5.90;2.40;;;4.80;99.90;;;;;;5098266;28;20906;-56
2023/03/05 05:11:19;;;;;;;6.15;2.95;;;4.90;99.90;;;;;;5098264;28;20434;-56
2023/03/05 05:13:46;;;;;;;6.18;2.63;;;5.10;99.90;;;;;;5096867;28;20999;-56
2023/03/05 05:16:14;;;;;;;6.03;2.20;;;5.10;99.90;;;;;;5098356;28;20425;-57
2023/03/05 05:18:41;;;;;;;5.20;2.60;;;5.10;99.90;;;;;;5098593;28;20470;-56
2023/03/05 05:21:09;;;;;;;6.55;2.70;;;5.10;99.90;;;;;;5097766;28;20745;-56
2023/03/05 05:23:36;;;;;;;7.97;2.90;;;4.90;99.90;;;;;;5098232;28;20436;-53
2023/03/05 05:26:05;;;;;;;5.13;2.40;;;4.90;99.90;;;;;;5097820;28;20833;-57
2023/03/05 05:28:37;;;;;;;7.50;3.30;;;4.90;99.90;;;;;;5097885;28;20421;-53
2023/03/05 05:31:07;;;;;;;7.65;3.10;;;4.90;99.90;;;;;;5097661;28;20437;-57
2023/03/05 05:33:34;;;;;;;7.10;3.15;;;4.90;99.90;;;;;;5097830;28;20414;-55
2023/03/05 05:36:03;;;;;;;7.88;3.53;;;4.90;99.90;;;;;;5097640;28;20430;-55
2023/03/05 05:38:30;;;;;;;7.45;3.45;;;4.70;99.90;;;;;;5097634;28;20872;-57
2023/03/05 05:41:03;;;;;;;5.95;2.97;;;4.50;99.90;;;;;;5097462;28;20429;-56
2023/03/05 05:43:30;;;;;;;7.25;3.08;;;4.50;99.90;;;;;;5097769;28;20457;-56
2023/03/05 05:46:01;;;;;;;7.63;3.13;;;4.50;99.90;;;;;;5096551;28;20429;-58
2023/03/05 05:48:29;;;;;;;9.13;3.17;;;4.70;99.90;;;;;;5097433;28;20830;-59
2023/03/05 05:50:56;;;;;;;8.50;3.40;;;4.80;99.90;;;;;;5097473;28;20437;-58
2023/03/05 05:53:24;;;;;;;6.63;3.17;;;4.80;99.90;;;;;;5097250;28;20433;-50
2023/03/05 05:55:51;;;;;;;6.70;3.05;;;4.80;99.90;;;;;;5097381;28;20426;-54
2023/03/05 05:58:18;;;;;;;7.47;2.87;;;4.80;99.90;;;;;;5097265;28;20418;-56
2023/03/05 06:00:45;;;;;;;7.68;3.30;;;4.80;99.90;;;;;;5096992;28;20430;-56
2023/03/05 06:03:14;;;;;;;9.73;4.05;;;4.70;99.90;;;;;;5097421;28;20414;-54
2023/03/05 06:05:42;;;;;;;10.30;4.78;;;4.70;99.90;;;;;;5096999;28;20436;-56
2023/03/05 06:08:09;;;;;;;6.68;3.55;;;4.80;99.90;;;;;;5097150;28;20418;-57
2023/03/05 06:10:36;;;;;;;9.35;3.67;;;4.80;99.90;;;;;;5096599;28;20421;-58
2023/03/05 06:13:03;;;;;;;7.07;3.58;;;4.80;99.90;;;;;;5095976;28;20418;-56
2023/03/05 06:15:31;;;;;;;9.23;3.58;;;4.80;99.90;;;;;;5096228;28;20482;-57
2023/03/05 06:17:59;;;;;;;12.35;4.72;;;4.70;99.90;;;;;;5096905;28;20440;-57
2023/03/05 06:20:28;;;;;;;7.80;4.00;;;4.80;99.90;;;;;;5096564;28;20675;-56
2023/03/05 06:22:55;;;;;;;9.75;4.00;;;4.70;99.90;;;;;;5096321;28;20830;-56
2023/03/05 06:25:22;;;;;;;9.15;4.53;;;4.80;99.90;;;;;;5094703;28;20428;-56
2023/03/05 06:27:49;;;;;;;8.00;3.65;;;4.80;99.90;;;;;;5096796;28;20425;-57
2023/03/05 06:30:16;;;;;;;10.30;3.80;;;4.90;99.90;;;;;;5096588;28;20465;-57
2023/03/05 06:32:43;;;;;;;8.80;4.25;;;4.80;99.90;;;;;;5096870;28;20441;-56
2023/03/05 06:35:11;;;;;;;8.57;4.45;;;4.90;99.90;;;;;;5096549;28;20421;-57
2023/03/05 06:37:39;;;;;;;8.77;4.53;;;4.90;99.90;;;;;;5096200;28;20422;-57
2023/03/05 06:40:08;;;;;;;8.55;3.90;;;4.90;99.90;;;;;;5096558;28;20883;-57
2023/03/05 06:42:35;;;;;;;8.63;4.30;;;5.00;99.90;;;;;;5096178;28;20421;-55
2023/03/05 06:45:03;;;;;;;10.38;4.70;;;4.90;99.90;;;;;;5095697;28;20410;-56
2023/03/05 06:47:30;;;;;;;7.63;3.40;;;4.80;99.90;;;;;;5095977;28;20426;-56
2023/03/05 06:49:57;;;;;;;9.23;4.85;;;4.80;99.90;;;;;;5096148;28;20474;-57
2023/03/05 06:52:24;;;;;;;10.40;4.75;;;4.90;99.90;;;;;;5096382;28;20437;-56
2023/03/05 06:54:54;;;;;;;8.95;3.65;;;5.00;99.90;;;;;;5095421;28;20899;-57
2023/03/05 06:57:21;;;;;;;10.00;3.97;;;5.20;99.90;;;;;;5094847;28;20729;-55
2023/03/05 06:59:49;;;;;;;9.60;4.35;;;5.20;99.90;;;;;;5095006;28;20414;-56
2023/03/05 07:02:17;;;;;;;7.85;3.65;;;5.20;99.90;;;;;;5095539;28;20738;-56
2023/03/05 07:04:44;;;;;;;8.55;3.88;;;5.10;99.90;;;;;;5094793;28;20421;-57
2023/03/05 07:07:11;;;;;;;8.57;4.50;;;5.20;99.90;;;;;;5095153;28;21141;-56
2023/03/05 07:09:41;;;;;;;9.07;4.65;;;5.20;99.90;;;;;;5095197;28;20484;-57
2023/03/05 07:12:10;;;;;;;7.70;3.90;;;5.20;99.90;;;;;;5095399;28;20849;-57
2023/03/05 07:14:38;;;;;;;10.95;4.10;;;5.30;99.90;;;;;;5095451;28;20696;-55
2023/03/05 07:17:06;;;;;;;9.32;4.72;;;5.30;99.90;;;;;;5095500;28;20722;-57
2023/03/05 07:19:33;;;;;;;10.63;4.70;;;5.30;99.90;;;;;;5094205;28;20421;-57
2023/03/05 07:22:00;;;;;;;10.10;5.35;;;5.10;99.90;;;;;;5094355;28;20422;-57
2023/03/05 07:24:28;;;;;;;11.35;5.03;;;5.10;99.90;;;;;;5095574;28;20425;-57
2023/03/05 07:26:56;;;;;;;11.30;5.00;;;5.00;99.90;;;;;;5094895;28;20429;-54
2023/03/05 07:29:26;;;;;;;9.00;4.80;;;5.00;99.90;;;;;;5095128;28;20825;-57
2023/03/05 07:31:53;;;;;;;7.20;4.45;;;4.90;99.90;;;;;;5095411;28;20434;-54
2023/03/05 07:34:21;;;;;;;11.95;4.45;;;4.90;99.90;;;;;;5095345;28;20431;-56
2023/03/05 07:36:50;;;;;;;9.57;4.63;;;4.90;99.90;;;;;;5094205;28;20429;-57
2023/03/05 07:39:18;;;;;;;9.30;4.60;;;5.10;99.90;;;;;;5095043;28;20413;-57
2023/03/05 07:41:46;;;;;;;7.05;3.20;;;5.10;99.90;;;;;;5095777;28;20498;-56
2023/03/05 07:44:13;;;;;;;8.45;4.80;;;4.90;99.90;;;;;;5095063;28;20471;-56
2023/03/05 07:46:42;;;;;;;10.55;4.72;;;4.90;99.90;;;;;;5094755;28;20434;-57
2023/03/05 07:49:09;;;;;;;7.65;3.75;;;4.90;99.90;;;;;;5094052;28;20440;-58
2023/03/05 07:51:36;;;;;;;8.85;4.20;;;4.90;99.90;;;;;;5093173;28;20433;-56
2023/03/05 07:54:03;;;;;;;8.75;4.80;;;5.10;99.90;;;;;;5094040;28;20829;-56
2023/03/05 07:56:34;;;;;;;8.63;3.65;;;5.30;99.90;;;;;;5093251;28;20487;-54
2023/03/05 07:59:02;;;;;;;8.90;4.43;;;5.50;99.90;;;;;;5093418;28;20433;-56
2023/03/05 08:01:30;;;;;;;7.97;4.03;;;5.60;99.90;;;;;;5094027;28;20457;-56
2023/03/05 08:03:59;;;;;;;9.18;4.10;;;5.60;99.90;;;;;;5092722;28;20421;-55
2023/03/05 08:06:27;;;;;;;9.57;5.13;;;5.60;99.90;;;;;;5092621;28;20426;-56
2023/03/05 08:08:54;;;;;;;8.02;3.90;;;5.60;99.90;;;;;;5091356;28;20452;-54
2023/03/05 08:11:21;;;;;;;9.25;4.47;;;5.40;99.90;;;;;;5091357;28;20433;-55
2023/03/05 08:13:48;;;;;;;10.20;4.55;;;5.50;99.90;;;;;;5092590;28;20413;-56
2023/03/05 08:16:17;;;;;;;7.15;4.13;;;5.40;99.90;;;;;;5090390;28;20436;-56
2023/03/05 08:18:45;;;;;;;7.85;4.30;;;5.40;99.90;;;;;;5072675;28;20846;-56
2023/03/05 08:21:21;;;;;;;7.85;3.60;;;5.60;99.90;;;;;;5073594;28;20435;-56
2023/03/05 08:23:49;;;;;;;9.63;4.57;;;5.70;99.90;;;;;;5073688;28;20420;-56
2023/03/05 08:26:18;;;;;;;9.30;4.57;;;5.60;99.90;;;;;;5072800;28;20438;-54
2023/03/05 08:28:45;;;;;;;9.48;5.35;;;5.70;99.90;;;;;;5074611;28;20419;-54
2023/03/05 08:31:14;;;;;;;7.38;3.67;;;5.60;99.90;;;;;;5073708;28;20431;-56
2023/03/05 08:33:41;;;;;;;7.65;3.78;;;5.60;99.90;;;;;;5074448;28;20424;-56
2023/03/05 08:36:09;;;;;;;7.03;3.53;;;5.70;99.90;;;;;;5073155;28;20420;-56
2023/03/05 08:38:38;;;;;;;6.43;3.88;;;5.90;99.90;;;;;;5073585;28;20419;-55
2023/03/05 08:41:05;;;;;;;7.85;3.70;;;5.90;99.90;;;;;;5072992;28;20438;-56
2023/03/05 08:43:33;;;;;;;8.93;3.67;;;5.70;99.90;;;;;;5073932;28;20436;-54
2023/03/05 08:46:01;;;;;;;10.13;3.95;;;5.60;99.90;;;;;;5073648;28;20438;-56
2023/03/05 08:48:28;;;;;;;10.70;4.60;;;5.60;99.90;;;;;;5073252;28;20431;-56
2023/03/05 08:50:56;;;;;;;8.27;3.80;;;5.70;99.90;;;;;;5073481;28;20434;-57
2023/03/05 08:53:23;;;;;;;8.88;3.60;;;5.70;99.90;;;;;;5072591;28;20518;-56
2023/03/05 08:55:58;;;;;;;10.60;3.83;;;5.60;99.90;;;;;;5073090;28;20431;-56
2023/03/05 08:58:26;;;;;;;7.13;4.00;;;5.80;99.90;;;;;;5072560;28;20423;-53
2023/03/05 09:00:53;;;;;;;8.80;3.97;;;5.80;99.90;;;;;;5073094;28;20431;-57
2023/03/05 09:03:20;;;;;;;9.43;3.88;;;6.00;99.90;;;;;;5069297;28;20710;-56
2023/03/05 09:05:47;;;;;;;8.07;3.90;;;6.10;99.90;;;;;;5072742;28;20717;-56
2023/03/05 09:08:15;;;;;;;6.83;4.10;;;6.20;99.90;;;;;;5073281;28;20420;-55
2023/03/05 09:10:42;;;;;;;7.95;3.33;;;6.30;99.90;;;;;;5072649;28;20701;-55
2023/03/05 09:13:12;;;;;;;7.43;4.30;;;6.40;99.90;;;;;;5073482;28;20431;-56
2023/03/05 09:15:39;;;;;;;8.57;4.05;;;6.20;99.90;;;;;;5072922;28;20420;-55
2023/03/05 09:18:07;;;;;;;7.65;4.05;;;6.00;99.90;;;;;;5073103;28;20420;-56
2023/03/05 09:20:35;;;;;;;8.18;4.78;;;6.10;99.90;;;;;;5072844;28;20424;-57
2023/03/05 09:23:02;;;;;;;9.55;4.90;;;6.20;99.90;;;;;;5075821;28;20419;-56
2023/03/05 09:25:29;;;;;;;9.65;4.68;;;6.10;99.90;;;;;;5075650;28;20448;-57
2023/03/05 09:27:56;;;;;;;7.03;4.13;;;6.10;99.90;;;;;;5075779;28;20422;-58
2023/03/05 09:30:25;;;;;;;10.07;4.60;;;6.20;99.90;;;;;;5074432;28;20419;-60
2023/03/05 09:32:52;;;;;;;8.15;4.18;;;6.30;99.90;;;;;;5074175;28;20598;-55
2023/03/05 09:35:19;;;;;;;9.13;4.20;;;6.30;99.90;;;;;;5074358;28;20445;-56
2023/03/05 09:37:46;;;;;;;7.40;3.85;;;6.40;99.90;;;;;;5075468;28;20424;-56
2023/03/05 09:40:17;;;;;;;8.98;4.25;;;6.50;99.90;;;;;;5076490;28;20419;-55
2023/03/05 09:42:54;;;;;;;9.95;5.28;;;6.50;99.90;;;;;;5077005;28;20420;-58
2023/03/05 09:45:27;;;;;;;8.55;3.40;;;6.60;99.90;;;;;;5075614;28;20736;-56
2023/03/05 09:48:04;;;;;;;8.07;5.00;;;6.70;99.90;;;;;;5075833;28;20424;-58
2023/03/05 09:50:37;;;;;;;10.13;4.45;;;6.70;99.90;;;;;;5074999;28;20755;-58
2023/03/05 09:53:21;;;;;;;9.88;4.57;;;6.60;99.90;;;;;;5075652;28;20498;-57
2023/03/05 09:55:51;;;;;;;10.30;5.05;;;6.30;99.90;;;;;;5075941;28;20431;-58
2023/03/05 09:58:25;;;;;;;7.35;3.85;;;6.00;99.90;;;;;;5076776;28;20419;-56
2023/03/05 10:00:57;;;;;;;7.82;4.00;;;6.10;99.90;;;;;;5076229;28;20735;-57
2023/03/05 10:03:29;;;;;;;8.10;4.35;;;6.30;99.90;;;;;;5074664;28;20427;-56
2023/03/05 10:06:05;;;;;;;9.13;4.30;;;6.50;99.90;;;;;;5075893;28;20739;-57
2023/03/05 10:08:46;;;;;;;8.48;4.10;;;6.70;99.90;;;;;;5074488;28;20423;-57
2023/03/05 10:11:29;;;;;;;8.27;4.70;;;6.90;99.90;;;;;;5075369;28;20434;-56
2023/03/05 10:13:57;;;;;;;10.00;6.20;;;7.10;99.90;;;;;;5072946;28;20431;-57
2023/03/05 10:17:19;;;;;;;10.20;4.70;;;7.10;99.90;;;;;;5072694;28;20431;-56
2023/03/05 10:20:01;;;;;;;9.48;4.40;;;7.00;99.90;;;;;;5011987;28;20441;-56
2023/03/05 10:22:31;;;;;;;8.57;5.00;;;6.90;99.90;;;;;;5011810;28;20432;-58
2023/03/05 10:25:18;;;;;;;8.45;5.22;;;6.80;99.90;;;;;;5044926;28;20835;-58
2023/03/05 10:27:49;;;;;;;8.73;5.00;;;6.80;99.90;;;;;;5071372;28;20481;-57
2023/03/05 10:30:32;;;;;;;7.18;4.78;;;6.80;99.90;;;;;;5074945;28;20416;-59
2023/03/05 10:33:12;;;;;;;7.30;4.53;;;7.00;99.90;;;;;;5072247;28;20454;-56
2023/03/05 10:36:10;;;;;;;9.77;5.25;;;7.00;99.90;;;;;;5073333;28;20431;-56
2023/03/05 10:39:07;;;;;;;8.95;5.40;;;6.90;99.90;;;;;;5053117;28;20472;-58
2023/03/05 10:41:42;;;;;;;10.98;5.03;;;6.80;99.90;;;;;;5074435;28;20435;-59
2023/03/05 10:44:15;;;;;;;10.03;5.63;;;6.70;99.90;;;;;;5079263;28;20453;-58
2023/03/05 10:46:43;;;;;;;9.73;5.80;;;6.70;99.90;;;;;;5094474;28;20441;-55
2023/03/05 10:49:18;;;;;;;10.18;5.10;;;6.80;99.90;;;;;;5095296;28;20418;-58
2023/03/05 10:51:52;;;;;;;10.80;4.75;;;6.90;99.90;;;;;;5093692;28;20430;-57
2023/03/05 10:54:25;;;;;;;8.90;4.70;;;7.00;99.90;;;;;;5094625;28;20421;-59
2023/03/05 10:57:03;;;;;;;9.82;5.50;;;7.20;99.90;;;;;;5094366;28;20505;-58
2023/03/05 10:59:30;;;;;;;10.75;5.10;;;7.20;99.90;;;;;;5093528;28;20418;-57
2023/03/05 11:02:07;;;;;;;9.63;4.53;;;7.20;99.90;;;;;;5094594;28;20444;-57
2023/03/05 11:04:37;;;;;;;8.40;4.60;;;7.00;99.90;;;;;;5095703;28;20425;-57
2023/03/05 11:07:30;;;;;;;9.57;4.72;;;7.00;99.90;;;;;;5092093;28;20445;-56
2023/03/05 11:10:24;;;;;;;9.93;4.17;;;6.80;99.90;;;;;;5073553;28;20434;-59
2023/03/05 11:12:52;;;;;;;7.97;4.50;;;6.70;99.90;;;;;;5090365;28;20425;-57
2023/03/05 11:15:29;;;;;;;8.23;4.10;;;6.80;99.90;;;;;;5094218;28;20745;-61
2023/03/05 11:18:20;;;;;;;9.45;5.15;;;6.60;99.90;;;;;;5092950;28;20849;-59
2023/03/05 11:20:49;;;;;;;6.88;4.53;;;6.60;99.90;;;;;;5092829;28;20524;-58
2023/03/05 11:23:17;;;;;;;7.93;4.35;;;6.70;99.90;;;;;;5092426;28;20426;-59
2023/03/05 11:25:57;;;;;;;8.60;4.25;;;6.60;99.90;;;;;;5091903;28;20425;-57
2023/03/05 11:28:27;;;;;;;8.38;4.32;;;6.70;99.90;;;;;;5072029;28;20415;-57
2023/03/05 11:31:00;;;;;;;9.60;4.38;;;6.60;99.90;;;;;;5069250;28;20431;-56
2023/03/05 11:33:27;;;;;;;11.00;5.57;;;6.60;99.90;;;;;;5092147;28;20477;-57
2023/03/05 11:36:21;;;;;;;11.35;5.53;;;6.70;99.90;;;;;;5089741;28;20430;-57
2023/03/05 11:38:53;;;;;;;10.93;5.10;;;6.60;99.90;;;;;;5092612;28;20521;-58
2023/03/05 11:41:26;;;;;;;8.80;4.33;;;6.50;99.90;;;;;;5092011;28;20445;-58
2023/03/05 11:43:55;;;;;;;9.52;4.55;;;6.60;99.90;;;;;;5075508;28;20423;-57
2023/03/05 11:46:23;;;;;;;7.85;4.00;;;6.60;99.90;;;;;;5078362;28;20434;-58
2023/03/05 11:48:53;;;;;;;8.00;4.15;;;6.60;99.90;;;;;;5092696;28;20445;-58
2023/03/05 11:51:27;;;;;;;12.13;4.63;;;6.60;99.90;;;;;;5094557;28;21122;-57
2023/03/05 11:53:59;;;;;;;10.35;6.15;;;6.40;99.90;;;;;;5091063;28;21117;-57
2023/03/05 11:56:30;;;;;;;9.43;5.50;;;6.30;99.90;;;;;;5092234;28;20441;-55
2023/03/05 11:59:01;;;;;;;11.75;6.35;;;6.40;99.90;;;;;;5090594;28;20440;-56
2023/03/05 12:01:31;;;;;;;12.95;5.82;;;6.50;99.90;;;;;;5094529;28;20853;-58
2023/03/05 12:03:58;;;;;;;12.45;6.25;;;6.50;99.90;;;;;;5090332;28;20516;-55
2023/03/05 12:06:34;;;;;;;8.23;4.57;;;6.50;99.90;;;;;;5092308;28;20437;-57
2023/03/05 12:09:03;;;;;;;9.30;4.38;;;6.50;99.90;;;;;;5092353;28;20441;-57
2023/03/05 12:11:33;;;;;;;9.63;4.72;;;6.60;99.90;;;;;;5093342;28;20437;-56
2023/03/05 12:14:05;;;;;;;8.75;4.50;;;6.60;99.90;;;;;;5092930;28;20453;-57
2023/03/05 12:16:38;;;;;;;10.73;5.60;;;6.40;99.90;;;;;;5093032;28;20425;-57
2023/03/05 12:19:29;;;;;;;9.33;5.03;;;6.30;99.90;;;;;;5091810;28;20425;-55
2023/03/05 12:21:58;;;;;;;11.73;5.65;;;6.10;99.90;;;;;;5091371;28;20483;-57
2023/03/05 12:24:38;;;;;;;11.55;4.75;;;6.00;99.90;;;;;;5091888;28;20642;-58
2023/03/05 12:27:09;;;;;;;8.30;4.17;;;6.00;99.90;;;;;;5089982;28;20622;-58
2023/03/05 12:29:41;;;;;;;8.68;4.72;;;6.20;99.90;;;;;;5090167;28;20438;-58
2023/03/05 12:32:41;;;;;;;8.88;4.60;;;6.20;99.90;;;;;;5090257;28;20436;-56
2023/03/05 12:35:23;;;;;;;8.27;3.90;;;6.10;99.90;;;;;;5092170;28;20414;-57
2023/03/05 12:38:16;;;;;;;8.18;3.60;;;6.10;99.90;;;;;;5091366;28;20433;-54
2023/03/05 12:40:43;;;;;;;10.15;3.60;;;6.00;99.90;;;;;;5090523;28;20441;-57
2023/03/05 12:43:29;;;;;;;7.10;3.00;;;6.10;99.90;;;;;;5070440;28;20857;-57
2023/03/05 12:46:24;;;;;;;7.57;3.50;;;6.30;99.90;;;;;;5072956;28;20445;-57
2023/03/05 12:48:51;;;;;;;6.68;2.67;;;6.50;99.90;;;;;;5071579;28;21032;-58
2023/03/05 12:51:31;;;;;;;8.25;3.78;;;6.50;99.90;;;;;;5081318;28;20529;-57
2023/03/05 12:54:26;;;;;;;9.23;4.00;;;6.60;99.90;;;;;;5091897;28;20461;-54
2023/03/05 12:56:56;;;;;;;7.10;3.35;;;6.70;99.90;;;;;;5092487;28;20881;-56
2023/03/05 12:59:28;;;;;;;7.90;4.18;;;6.80;99.90;;;;;;5081787;28;20423;-56
2023/03/05 13:01:58;;;;;;;6.80;3.47;;;6.80;99.90;;;;;;5077096;28;20435;-56
2023/03/05 13:04:29;;;;;;;9.02;3.65;;;6.80;99.90;;;;;;5082391;28;20417;-56
2023/03/05 13:07:03;;;;;;;9.07;4.07;;;6.60;99.90;;;;;;5083617;28;20446;-56
2023/03/05 13:09:33;;;;;;;7.25;3.67;;;6.70;99.90;;;;;;5076384;28;20419;-56